createdAt,value
2023-03-16T00:00:30.566Z,35.06
2023-03-16T00:01:30.656Z,35.04
2023-03-16T00:02:30.733Z,35.06
2023-03-16T00:03:30.985Z,35.04
2023-03-16T00:04:30.932Z,35.04
2023-03-16T00:05:31.019Z,35.02
2023-03-16T00:06:31.057Z,35.04
2023-03-16T00:07:31.154Z,35.04
2023-03-16T00:08:31.239Z,35.04
2023-03-16T00:09:31.459Z,35.06
2023-03-16T00:10:31.406Z,35.07
2023-03-16T00:11:31.517Z,35.06
2023-03-16T00:12:31.597Z,35.05
2023-03-16T00:13:31.671Z,35.08
2023-03-16T00:14:31.728Z,35.11
2023-03-16T00:15:31.842Z,35.08
2023-03-16T00:16:31.943Z,35.07
2023-03-16T00:17:32.024Z,35.07
2023-03-16T00:18:32.105Z,35.07
2023-03-16T00:19:32.160Z,35.16
2023-03-16T00:20:32.229Z,35.09
2023-03-16T00:21:32.302Z,35.06
2023-03-16T00:22:38.537Z,35.05
2023-03-16T00:23:32.464Z,35.09
2023-03-16T00:24:32.530Z,35.09
2023-03-16T00:25:32.598Z,35.07
2023-03-16T00:26:32.689Z,35.09
2023-03-16T00:27:32.756Z,35.07
2023-03-16T00:28:32.860Z,35.04
2023-03-16T00:29:32.929Z,35.08
2023-03-16T00:30:33.033Z,35.06
2023-03-16T00:31:33.155Z,35.07
2023-03-16T00:32:33.270Z,35.08
2023-03-16T00:33:33.296Z,35.08
2023-03-16T00:34:33.411Z,35.11
2023-03-16T00:35:33.450Z,35.10
2023-03-16T00:36:33.545Z,35.12
2023-03-16T00:37:33.677Z,35.09
2023-03-16T00:38:33.725Z,35.09
2023-03-16T00:39:33.801Z,35.07
2023-03-16T00:40:33.889Z,35.13
2023-03-16T00:41:33.949Z,35.09
2023-03-16T00:42:34.031Z,35.07
2023-03-16T00:43:34.106Z,35.08
2023-03-16T00:44:34.222Z,35.10
2023-03-16T00:45:34.350Z,35.12
2023-03-16T00:46:34.987Z,35.12
2023-03-16T00:47:34.449Z,35.11
2023-03-16T00:48:34.546Z,35.11
2023-03-16T00:49:34.602Z,35.08
2023-03-16T00:50:34.697Z,35.10
2023-03-16T00:51:34.777Z,35.08
2023-03-16T00:52:34.845Z,35.10
2023-03-16T00:53:40.896Z,35.09
2023-03-16T00:54:34.991Z,35.11
2023-03-16T00:55:35.080Z,35.12
2023-03-16T00:56:35.183Z,35.09
2023-03-16T00:57:35.305Z,35.12
2023-03-16T00:58:35.335Z,35.13
2023-03-16T00:59:35.423Z,35.13
2023-03-16T01:00:35.483Z,35.08
2023-03-16T01:01:35.643Z,35.11
2023-03-16T01:02:35.674Z,35.10
2023-03-16T01:03:35.878Z,35.12
2023-03-16T01:04:35.844Z,35.10
2023-03-16T01:05:35.961Z,35.13
2023-03-16T01:06:38.326Z,35.12
2023-03-16T01:07:36.191Z,35.14
2023-03-16T01:08:36.194Z,35.13
2023-03-16T01:09:36.261Z,35.11
2023-03-16T01:10:36.354Z,35.12
2023-03-16T01:11:36.445Z,35.11
2023-03-16T01:12:36.566Z,35.10
2023-03-16T01:13:36.590Z,35.14
2023-03-16T01:14:36.657Z,35.12
2023-03-16T01:15:36.862Z,35.13
2023-03-16T01:16:36.882Z,35.11
2023-03-16T01:17:36.924Z,35.11
2023-03-16T01:18:37.039Z,35.14
2023-03-16T01:19:37.085Z,35.10
2023-03-16T01:20:37.192Z,35.10
2023-03-16T01:21:37.255Z,35.09
2023-03-16T01:22:37.354Z,35.10
2023-03-16T01:23:37.440Z,35.11
2023-03-16T01:24:43.549Z,35.11
2023-03-16T01:25:37.585Z,35.15
2023-03-16T01:26:37.654Z,35.11
2023-03-16T01:27:37.737Z,35.11
2023-03-16T01:28:37.843Z,35.13
2023-03-16T01:29:37.920Z,35.13
2023-03-16T01:30:38.061Z,35.11
2023-03-16T01:31:38.095Z,35.14
2023-03-16T01:32:38.143Z,35.18
2023-03-16T01:33:38.235Z,35.14
2023-03-16T01:34:38.321Z,35.15
2023-03-16T01:35:38.438Z,35.13
2023-03-16T01:36:38.502Z,35.11
2023-03-16T01:37:38.560Z,35.14
2023-03-16T01:38:38.652Z,35.14
2023-03-16T01:39:38.739Z,35.13
2023-03-16T01:40:38.831Z,35.11
2023-03-16T01:41:38.913Z,35.13
2023-03-16T01:42:38.987Z,35.11
2023-03-16T01:43:39.044Z,35.14
2023-03-16T01:44:39.115Z,35.12
2023-03-16T01:45:39.169Z,35.15
2023-03-16T01:46:39.340Z,35.15
2023-03-16T01:47:39.378Z,35.13
2023-03-16T01:48:39.470Z,35.14
2023-03-16T01:49:39.530Z,35.13
2023-03-16T01:50:39.576Z,35.16
2023-03-16T01:51:39.674Z,35.11
2023-03-16T01:52:39.743Z,35.12
2023-03-16T01:53:39.831Z,35.14
2023-03-16T01:54:39.928Z,35.16
2023-03-16T01:55:45.958Z,35.14
2023-03-16T01:56:40.056Z,35.17
2023-03-16T01:57:40.125Z,35.15
2023-03-16T01:58:40.212Z,35.13
2023-03-16T01:59:40.287Z,35.15
2023-03-16T02:00:40.370Z,35.15
2023-03-16T02:01:40.463Z,35.14
2023-03-16T02:02:40.541Z,35.14
2023-03-16T02:03:40.598Z,35.14
2023-03-16T02:04:40.711Z,35.14
2023-03-16T02:05:40.775Z,35.15
2023-03-16T02:06:40.837Z,35.14
2023-03-16T02:07:40.949Z,35.13
2023-03-16T02:08:41.034Z,35.14
2023-03-16T02:09:41.091Z,35.13
2023-03-16T02:10:41.166Z,35.16
2023-03-16T02:11:41.281Z,35.16
2023-03-16T02:12:41.350Z,35.15
2023-03-16T02:13:41.415Z,35.14
2023-03-16T02:14:41.495Z,35.12
2023-03-16T02:15:41.630Z,35.12
2023-03-16T02:16:41.639Z,35.17
2023-03-16T02:17:41.711Z,35.14
2023-03-16T02:18:41.819Z,35.16
2023-03-16T02:19:41.875Z,35.13
2023-03-16T02:20:41.977Z,35.16
2023-03-16T02:21:42.075Z,35.13
2023-03-16T02:22:42.164Z,35.15
2023-03-16T02:23:42.219Z,35.14
2023-03-16T02:24:42.291Z,35.15
2023-03-16T02:25:42.381Z,35.15
2023-03-16T02:26:48.424Z,35.13
2023-03-16T02:27:42.557Z,35.19
2023-03-16T02:28:42.607Z,35.18
2023-03-16T02:29:42.685Z,35.15
2023-03-16T02:30:42.861Z,35.14
2023-03-16T02:31:42.830Z,35.20
2023-03-16T02:32:42.941Z,35.13
2023-03-16T02:33:43.050Z,35.15
2023-03-16T02:34:43.082Z,35.15
2023-03-16T02:35:43.210Z,35.15
2023-03-16T02:36:43.218Z,35.17
2023-03-16T02:37:43.320Z,35.15
2023-03-16T02:38:43.427Z,35.16
2023-03-16T02:39:43.506Z,35.15
2023-03-16T02:40:43.574Z,35.17
2023-03-16T02:41:43.642Z,35.16
2023-03-16T02:42:43.744Z,35.17
2023-03-16T02:43:43.825Z,35.18
2023-03-16T02:44:43.948Z,35.17
2023-03-16T02:45:44.028Z,35.17
2023-03-16T02:46:44.129Z,35.18
2023-03-16T02:47:44.180Z,35.19
2023-03-16T02:48:44.272Z,35.18
2023-03-16T02:49:44.339Z,35.15
2023-03-16T02:50:44.423Z,35.15
2023-03-16T02:51:44.532Z,35.15
2023-03-16T02:52:44.602Z,35.14
2023-03-16T02:53:44.697Z,35.15
2023-03-16T02:54:44.775Z,35.15
2023-03-16T02:55:44.867Z,35.17
2023-03-16T02:56:44.958Z,35.13
2023-03-16T02:57:51.119Z,35.15
2023-03-16T02:58:45.116Z,35.17
2023-03-16T02:59:45.200Z,35.18
2023-03-16T03:00:45.296Z,35.16
2023-03-16T03:01:45.368Z,35.16
2023-03-16T03:02:45.518Z,35.15
2023-03-16T03:03:45.576Z,35.17
2023-03-16T03:04:45.622Z,35.17
2023-03-16T03:05:45.725Z,35.14
2023-03-16T03:06:45.810Z,35.15
2023-03-16T03:07:45.879Z,35.17
2023-03-16T03:08:45.966Z,35.17
2023-03-16T03:09:46.058Z,35.18
2023-03-16T03:10:46.121Z,35.16
2023-03-16T03:11:46.204Z,35.17
2023-03-16T03:12:46.302Z,35.15
2023-03-16T03:13:46.374Z,35.14
2023-03-16T03:14:46.483Z,35.15
2023-03-16T03:15:46.550Z,35.14
2023-03-16T03:16:47.028Z,35.18
2023-03-16T03:17:46.719Z,35.18
2023-03-16T03:18:46.800Z,35.17
2023-03-16T03:19:46.844Z,35.17
2023-03-16T03:20:46.937Z,35.18
2023-03-16T03:21:46.989Z,35.16
2023-03-16T03:22:47.084Z,35.15
2023-03-16T03:23:47.158Z,35.14
2023-03-16T03:24:47.246Z,35.15
2023-03-16T03:25:47.336Z,35.16
2023-03-16T03:26:47.448Z,35.17
2023-03-16T03:27:47.534Z,35.18
2023-03-16T03:28:53.585Z,35.20
2023-03-16T03:29:47.669Z,35.19
2023-03-16T03:30:47.760Z,35.18
2023-03-16T03:31:47.960Z,35.17
2023-03-16T03:32:47.963Z,35.16
2023-03-16T03:33:48.009Z,35.17
2023-03-16T03:34:48.082Z,35.15
2023-03-16T03:35:48.244Z,35.17
2023-03-16T03:36:48.264Z,35.18
2023-03-16T03:37:48.342Z,35.16
2023-03-16T03:38:48.420Z,35.18
2023-03-16T03:39:48.520Z,35.15
2023-03-16T03:40:48.590Z,35.16
2023-03-16T03:41:48.654Z,35.17
2023-03-16T03:42:48.750Z,35.17
2023-03-16T03:43:48.804Z,35.17
2023-03-16T03:44:48.898Z,35.18
2023-03-16T03:45:49.103Z,35.18
2023-03-16T03:46:49.199Z,35.19
2023-03-16T03:47:49.204Z,35.18
2023-03-16T03:48:49.288Z,35.17
2023-03-16T03:49:49.391Z,35.18
2023-03-16T03:50:49.419Z,35.17
2023-03-16T03:51:49.487Z,35.22
2023-03-16T03:52:49.582Z,35.19
2023-03-16T03:53:49.691Z,35.17
2023-03-16T03:54:49.779Z,35.15
2023-03-16T03:55:49.871Z,35.18
2023-03-16T03:56:49.974Z,35.18
2023-03-16T03:57:50.031Z,35.20
2023-03-16T03:58:50.105Z,35.17
2023-03-16T03:59:56.675Z,35.18
2023-03-16T04:00:50.304Z,35.22
2023-03-16T04:01:50.402Z,35.21
2023-03-16T04:02:50.567Z,35.21
2023-03-16T04:03:50.534Z,35.20
2023-03-16T04:04:50.643Z,35.19
2023-03-16T04:05:50.706Z,35.19
2023-03-16T04:06:50.759Z,35.22
2023-03-16T04:07:50.880Z,35.21
2023-03-16T04:08:50.921Z,35.21
2023-03-16T04:09:51.009Z,35.19
2023-03-16T04:10:51.303Z,35.18
2023-03-16T04:11:51.209Z,35.19
2023-03-16T04:12:51.271Z,35.20
2023-03-16T04:13:51.339Z,35.21
2023-03-16T04:14:51.436Z,35.18
2023-03-16T04:15:51.503Z,35.15
2023-03-16T04:16:51.627Z,35.18
2023-03-16T04:17:51.668Z,35.14
2023-03-16T04:18:51.770Z,35.17
2023-03-16T04:19:51.874Z,35.17
2023-03-16T04:20:51.941Z,35.16
2023-03-16T04:21:52.033Z,35.18
2023-03-16T04:22:52.113Z,35.17
2023-03-16T04:23:52.200Z,35.17
2023-03-16T04:24:52.294Z,35.18
2023-03-16T04:25:52.350Z,35.18
2023-03-16T04:26:52.457Z,35.21
2023-03-16T04:27:52.552Z,35.19
2023-03-16T04:28:52.607Z,35.17
2023-03-16T04:29:52.689Z,35.15
2023-03-16T04:30:59.683Z,35.17
2023-03-16T04:31:52.825Z,35.20
2023-03-16T04:32:53.031Z,35.19
2023-03-16T04:33:53.007Z,35.19
2023-03-16T04:34:54.045Z,35.18
2023-03-16T04:35:53.169Z,35.19
2023-03-16T04:36:53.238Z,35.18
2023-03-16T04:37:53.327Z,35.18
2023-03-16T04:38:53.397Z,35.18
2023-03-16T04:39:53.509Z,35.18
2023-03-16T04:40:53.561Z,35.18
2023-03-16T04:41:53.625Z,35.19
2023-03-16T04:42:53.709Z,35.18
2023-03-16T04:43:53.812Z,35.18
2023-03-16T04:44:53.849Z,35.18
2023-03-16T04:45:53.993Z,35.18
2023-03-16T04:46:54.011Z,35.15
2023-03-16T04:47:54.086Z,35.15
2023-03-16T04:48:54.173Z,35.15
2023-03-16T04:49:54.267Z,35.17
2023-03-16T04:50:54.377Z,35.19
2023-03-16T04:51:54.455Z,35.18
2023-03-16T04:52:54.518Z,35.17
2023-03-16T04:53:54.600Z,35.17
2023-03-16T04:54:54.686Z,35.17
2023-03-16T04:55:54.769Z,35.18
2023-03-16T04:56:54.864Z,35.21
2023-03-16T04:57:54.915Z,35.21
2023-03-16T04:58:55.017Z,35.20
2023-03-16T04:59:55.104Z,35.18
2023-03-16T05:00:55.190Z,35.16
2023-03-16T05:02:01.712Z,35.14
2023-03-16T05:02:55.361Z,35.21
2023-03-16T05:03:55.441Z,35.18
2023-03-16T05:04:55.519Z,35.18
2023-03-16T05:05:55.648Z,35.16
2023-03-16T05:06:55.674Z,35.18
2023-03-16T05:07:55.812Z,35.20
2023-03-16T05:08:55.807Z,35.18
2023-03-16T05:09:55.931Z,35.20
2023-03-16T05:10:56.004Z,35.21
2023-03-16T05:11:56.061Z,35.21
2023-03-16T05:12:56.158Z,35.21
2023-03-16T05:13:56.285Z,35.16
2023-03-16T05:14:56.361Z,35.19
2023-03-16T05:15:56.535Z,35.13
2023-03-16T05:16:56.478Z,35.16
2023-03-16T05:17:56.551Z,35.12
2023-03-16T05:18:56.640Z,35.11
2023-03-16T05:19:56.711Z,35.08
2023-03-16T05:20:56.793Z,35.08
2023-03-16T05:21:56.882Z,35.06
2023-03-16T05:22:56.953Z,35.06
2023-03-16T05:23:57.032Z,35.08
2023-03-16T05:24:57.150Z,35.03
2023-03-16T05:25:57.179Z,35.05
2023-03-16T05:26:57.265Z,35.02
2023-03-16T05:27:57.380Z,35.02
2023-03-16T05:28:57.438Z,35.12
2023-03-16T05:29:57.546Z,35.02
2023-03-16T05:30:57.626Z,35.08
2023-03-16T05:31:57.675Z,35.06
2023-03-16T05:33:03.842Z,35.01
2023-03-16T05:33:57.850Z,35.03
2023-03-16T05:34:57.940Z,35.03
2023-03-16T05:35:58.164Z,35.04
2023-03-16T05:36:58.080Z,35.02
2023-03-16T05:37:58.194Z,35.08
2023-03-16T05:38:58.319Z,35.00
2023-03-16T05:39:58.348Z,34.98
2023-03-16T05:40:58.433Z,35.00
2023-03-16T05:41:58.515Z,35.03
2023-03-16T05:42:58.587Z,35.02
2023-03-16T05:43:58.689Z,34.98
2023-03-16T05:44:58.781Z,34.97
2023-03-16T05:45:58.868Z,35.04
2023-03-16T05:46:59.044Z,35.00
2023-03-16T05:47:59.102Z,34.95
2023-03-16T05:48:59.170Z,35.01
2023-03-16T05:49:59.245Z,34.96
2023-03-16T05:50:59.409Z,35.02
2023-03-16T05:51:59.437Z,34.95
2023-03-16T05:52:59.536Z,34.93
2023-03-16T05:53:59.591Z,35.00
2023-03-16T05:54:59.677Z,34.97
2023-03-16T05:55:59.772Z,34.92
2023-03-16T05:56:59.839Z,34.97
2023-03-16T05:57:59.908Z,34.99
2023-03-16T05:59:00.008Z,34.91
2023-03-16T06:00:00.078Z,35.00
2023-03-16T06:01:00.136Z,34.91
2023-03-16T06:02:00.190Z,35.00
2023-03-16T06:03:00.447Z,34.98
2023-03-16T06:04:06.759Z,34.92
2023-03-16T06:05:00.484Z,34.91
2023-03-16T06:06:00.576Z,34.96
2023-03-16T06:07:00.683Z,35.03
2023-03-16T06:08:00.761Z,34.97
2023-03-16T06:09:00.846Z,34.87
2023-03-16T06:10:00.966Z,34.96
2023-03-16T06:11:00.995Z,34.86
2023-03-16T06:12:01.095Z,34.89
2023-03-16T06:13:01.184Z,34.85
2023-03-16T06:14:01.273Z,34.85
2023-03-16T06:15:01.353Z,34.90
2023-03-16T06:16:01.492Z,34.94
2023-03-16T06:17:01.520Z,34.85
2023-03-16T06:18:01.578Z,34.83
2023-03-16T06:19:01.671Z,34.90
2023-03-16T06:20:01.745Z,34.89
2023-03-16T06:21:01.858Z,34.90
2023-03-16T06:22:02.029Z,34.89
2023-03-16T06:23:02.020Z,34.88
2023-03-16T06:24:02.099Z,34.83
2023-03-16T06:25:02.153Z,34.84
2023-03-16T06:26:02.256Z,34.86
2023-03-16T06:27:02.410Z,34.80
2023-03-16T06:28:02.427Z,34.83
2023-03-16T06:29:02.532Z,34.78
2023-03-16T06:30:02.598Z,34.88
2023-03-16T06:31:02.691Z,34.80
2023-03-16T06:32:02.820Z,34.78
2023-03-16T06:33:02.940Z,34.84
2023-03-16T06:34:02.964Z,34.83
2023-03-16T06:35:09.021Z,34.80
2023-03-16T06:36:03.172Z,34.80
2023-03-16T06:37:03.208Z,34.82
2023-03-16T06:38:03.295Z,34.77
2023-03-16T06:39:03.350Z,34.75
2023-03-16T06:40:03.443Z,34.77
2023-03-16T06:41:03.534Z,34.77
2023-03-16T06:42:03.631Z,34.83
2023-03-16T06:43:03.750Z,34.78
2023-03-16T06:44:03.804Z,34.78
2023-03-16T06:45:03.874Z,34.76
2023-03-16T06:46:04.030Z,34.79
2023-03-16T06:47:04.036Z,34.78
2023-03-16T06:48:04.134Z,34.79
2023-03-16T06:49:04.218Z,34.75
2023-03-16T06:50:04.291Z,34.76
2023-03-16T06:51:04.376Z,34.76
2023-03-16T06:52:04.465Z,34.74
2023-03-16T06:53:04.547Z,34.75
2023-03-16T06:54:04.626Z,34.76
2023-03-16T06:55:04.702Z,34.80
2023-03-16T06:56:04.806Z,34.86
2023-03-16T06:57:04.913Z,34.76
2023-03-16T06:58:04.996Z,34.82
2023-03-16T06:59:05.078Z,34.76
2023-03-16T07:00:05.186Z,34.72
2023-03-16T07:01:05.360Z,29.20
2023-03-16T07:02:05.334Z,29.50
2023-03-16T07:03:05.430Z,29.89
2023-03-16T07:04:05.544Z,30.28
2023-03-16T07:05:05.608Z,30.70
2023-03-16T07:06:11.662Z,31.44
2023-03-16T07:07:05.844Z,31.73
2023-03-16T07:08:05.859Z,31.87
2023-03-16T07:09:05.917Z,31.73
2023-03-16T07:10:06.040Z,30.91
2023-03-16T07:11:06.160Z,31.72
2023-03-16T07:12:06.129Z,31.93
2023-03-16T07:13:06.194Z,31.69
2023-03-16T07:14:06.273Z,32.52
2023-03-16T07:15:06.363Z,32.93
2023-03-16T07:16:06.480Z,32.92
2023-03-16T07:17:06.634Z,31.96
2023-03-16T07:18:06.636Z,32.23
2023-03-16T07:19:06.674Z,32.48
2023-03-16T07:20:06.738Z,32.17
2023-03-16T07:21:06.849Z,31.83
2023-03-16T07:22:07.015Z,32.34
2023-03-16T07:23:07.156Z,32.69
2023-03-16T07:24:07.176Z,32.21
2023-03-16T07:25:07.223Z,32.67
2023-03-16T07:26:07.324Z,32.35
2023-03-16T07:27:07.361Z,31.78
2023-03-16T07:28:07.522Z,33.04
2023-03-16T07:29:07.572Z,33.47
2023-03-16T07:30:07.625Z,33.08
2023-03-16T07:31:07.722Z,32.36
2023-03-16T07:32:07.841Z,32.41
2023-03-16T07:33:07.958Z,32.40
2023-03-16T07:34:07.940Z,32.53
2023-03-16T07:35:08.066Z,32.40
2023-03-16T07:36:08.160Z,31.78
2023-03-16T07:37:14.237Z,32.51
2023-03-16T07:38:08.287Z,32.78
2023-03-16T07:39:08.409Z,32.49
2023-03-16T07:40:08.502Z,32.79
2023-03-16T07:41:08.654Z,32.84
2023-03-16T07:42:08.568Z,32.23
2023-03-16T07:43:08.623Z,32.03
2023-03-16T07:44:08.742Z,32.47
2023-03-16T07:45:08.757Z,32.30
2023-03-16T07:46:08.900Z,31.78
2023-03-16T07:47:08.918Z,31.79
2023-03-16T07:48:08.976Z,31.39
2023-03-16T07:49:09.107Z,32.22
2023-03-16T07:50:09.176Z,32.19
2023-03-16T07:51:09.274Z,32.38
2023-03-16T07:52:09.334Z,32.31
2023-03-16T07:53:09.422Z,32.21
2023-03-16T07:54:09.459Z,32.27
2023-03-16T07:55:09.519Z,32.18
2023-03-16T07:56:09.585Z,32.21
2023-03-16T07:57:09.745Z,32.13
2023-03-16T07:58:09.741Z,31.85
2023-03-16T07:59:09.816Z,31.81
2023-03-16T08:00:09.885Z,31.75
2023-03-16T08:01:09.948Z,31.75
2023-03-16T08:02:10.072Z,31.80
2023-03-16T08:03:10.193Z,31.74
2023-03-16T08:04:10.211Z,31.68
2023-03-16T08:05:10.304Z,31.71
2023-03-16T08:06:10.363Z,31.69
2023-03-16T08:07:10.452Z,31.67
2023-03-16T08:08:16.506Z,31.60
2023-03-16T08:09:10.632Z,31.58
2023-03-16T08:10:10.661Z,31.63
2023-03-16T08:11:10.751Z,31.57
2023-03-16T08:12:10.855Z,31.61
2023-03-16T08:13:10.911Z,31.53
2023-03-16T08:14:11.002Z,31.52
2023-03-16T08:15:11.091Z,31.52
2023-03-16T08:16:11.305Z,31.47
2023-03-16T08:17:11.234Z,31.48
2023-03-16T08:18:11.306Z,31.45
2023-03-16T08:19:11.391Z,31.47
2023-03-16T08:20:11.493Z,31.47
2023-03-16T08:21:11.538Z,31.45
2023-03-16T08:22:11.605Z,31.47
2023-03-16T08:23:11.694Z,31.44
2023-03-16T08:24:11.772Z,31.43
2023-03-16T08:25:11.879Z,31.42
2023-03-16T08:26:11.990Z,31.41
2023-03-16T08:27:12.050Z,31.40
2023-03-16T08:28:12.111Z,31.43
2023-03-16T08:29:12.260Z,31.41
2023-03-16T08:30:12.282Z,31.43
2023-03-16T08:31:12.455Z,31.44
2023-03-16T08:32:12.471Z,31.44
2023-03-16T08:33:12.572Z,31.42
2023-03-16T08:34:12.624Z,31.45
2023-03-16T08:35:12.712Z,31.42
2023-03-16T08:36:12.831Z,31.41
2023-03-16T08:37:12.923Z,31.40
2023-03-16T08:38:12.957Z,31.43
2023-03-16T08:39:19.051Z,31.41
2023-03-16T08:40:13.140Z,31.46
2023-03-16T08:41:13.226Z,31.49
2023-03-16T08:42:13.319Z,31.47
2023-03-16T08:43:13.418Z,31.46
2023-03-16T08:44:13.451Z,31.53
2023-03-16T08:45:14.409Z,31.48
2023-03-16T08:46:13.680Z,31.50
2023-03-16T08:47:13.687Z,31.49
2023-03-16T08:48:13.798Z,31.50
2023-03-16T08:49:13.855Z,31.50
2023-03-16T08:50:13.948Z,31.50
2023-03-16T08:51:14.034Z,31.52
2023-03-16T08:52:14.093Z,31.51
2023-03-16T08:53:14.140Z,31.51
2023-03-16T08:54:14.235Z,31.52
2023-03-16T08:55:14.282Z,31.53
2023-03-16T08:56:14.368Z,31.51
2023-03-16T08:57:14.450Z,31.53
2023-03-16T08:58:14.519Z,31.53
2023-03-16T08:59:27.307Z,31.51
2023-03-16T09:00:14.686Z,31.54
2023-03-16T09:01:14.767Z,31.55
2023-03-16T09:02:14.936Z,31.55
2023-03-16T09:03:14.919Z,31.51
2023-03-16T09:04:15.099Z,31.53
2023-03-16T09:05:15.131Z,31.55
2023-03-16T09:06:15.187Z,31.56
2023-03-16T09:07:15.244Z,31.55
2023-03-16T09:08:15.332Z,31.56
2023-03-16T09:09:15.404Z,31.59
2023-03-16T09:10:21.852Z,31.56
2023-03-16T09:11:15.588Z,31.61
2023-03-16T09:12:15.675Z,31.59
2023-03-16T09:13:15.784Z,31.60
2023-03-16T09:14:15.841Z,31.59
2023-03-16T09:15:15.947Z,31.57
2023-03-16T09:16:16.193Z,31.59
2023-03-16T09:17:16.122Z,31.58
2023-03-16T09:18:16.177Z,31.59
2023-03-16T09:19:16.262Z,31.62
2023-03-16T09:20:26.947Z,31.65
2023-03-16T09:21:16.419Z,31.66
2023-03-16T09:22:16.459Z,31.61
2023-03-16T09:23:16.535Z,31.63
2023-03-16T09:24:16.607Z,31.62
2023-03-16T09:25:16.712Z,31.63
2023-03-16T09:26:16.799Z,31.62
2023-03-16T09:27:16.953Z,31.64
2023-03-16T09:28:16.939Z,31.65
2023-03-16T09:29:17.022Z,31.66
2023-03-16T09:30:17.118Z,31.65
2023-03-16T09:31:17.183Z,31.66
2023-03-16T09:32:17.258Z,31.68
2023-03-16T09:33:17.323Z,31.68
2023-03-16T09:34:17.395Z,31.67
2023-03-16T09:35:17.479Z,31.71
2023-03-16T09:36:17.627Z,31.73
2023-03-16T09:37:17.679Z,31.73
2023-03-16T09:38:17.798Z,31.76
2023-03-16T09:39:17.888Z,31.77
2023-03-16T09:40:17.897Z,31.77
2023-03-16T09:41:23.978Z,31.79
2023-03-16T09:42:18.073Z,31.83
2023-03-16T09:43:18.246Z,31.81
2023-03-16T09:44:18.213Z,31.81
2023-03-16T09:45:18.317Z,31.81
2023-03-16T09:46:18.423Z,31.84
2023-03-16T09:47:18.455Z,31.85
2023-03-16T09:48:18.523Z,31.88
2023-03-16T09:49:18.613Z,31.89
2023-03-16T09:50:18.816Z,31.87
2023-03-16T09:51:18.941Z,31.88
2023-03-16T09:52:18.893Z,31.90
2023-03-16T09:53:18.959Z,31.94
2023-03-16T09:54:19.040Z,31.91
2023-03-16T09:55:19.160Z,31.93
2023-03-16T09:56:19.284Z,31.93
2023-03-16T09:57:19.367Z,31.93
2023-03-16T09:58:19.481Z,31.98
2023-03-16T09:59:19.495Z,32.02
2023-03-16T10:00:19.575Z,32.04
2023-03-16T10:01:19.685Z,32.06
2023-03-16T10:02:19.729Z,32.08
2023-03-16T10:03:19.801Z,32.07
2023-03-16T10:04:19.912Z,32.09
2023-03-16T10:05:19.963Z,32.14
2023-03-16T10:06:20.030Z,32.22
2023-03-16T10:07:20.107Z,32.24
2023-03-16T10:08:20.216Z,32.17
2023-03-16T10:09:20.279Z,32.19
2023-03-16T10:10:20.364Z,32.26
2023-03-16T10:11:20.432Z,32.31
2023-03-16T10:12:26.560Z,32.30
2023-03-16T10:13:20.658Z,32.40
2023-03-16T10:14:20.705Z,32.42
2023-03-16T10:15:20.825Z,32.49
2023-03-16T10:16:20.935Z,32.46
2023-03-16T10:17:21.217Z,32.50
2023-03-16T10:18:21.084Z,32.52
2023-03-16T10:19:21.195Z,32.54
2023-03-16T10:20:21.281Z,32.51
2023-03-16T10:21:21.329Z,32.45
2023-03-16T10:22:21.400Z,32.49
2023-03-16T10:23:21.506Z,32.50
2023-03-16T10:24:21.582Z,32.49
2023-03-16T10:25:21.629Z,32.14
2023-03-16T10:26:21.727Z,32.47
2023-03-16T10:27:21.833Z,30.74
2023-03-16T10:28:21.904Z,30.42
2023-03-16T10:29:22.021Z,29.99
2023-03-16T10:30:22.206Z,30.17
2023-03-16T10:31:22.240Z,30.14
2023-03-16T10:32:22.235Z,30.38
2023-03-16T10:33:22.334Z,30.43
2023-03-16T10:34:22.423Z,30.53
2023-03-16T10:35:22.541Z,30.69
2023-03-16T10:36:22.726Z,30.81
2023-03-16T10:37:22.745Z,30.92
2023-03-16T10:38:22.777Z,31.02
2023-03-16T10:39:22.834Z,31.00
2023-03-16T10:40:22.911Z,30.99
2023-03-16T10:41:23.121Z,31.02
2023-03-16T10:42:23.084Z,31.05
2023-03-16T10:43:29.263Z,31.09
2023-03-16T10:44:23.294Z,31.09
2023-03-16T10:45:23.370Z,31.09
2023-03-16T10:46:23.615Z,31.07
2023-03-16T10:47:23.555Z,31.06
2023-03-16T10:48:23.606Z,31.05
2023-03-16T10:49:23.687Z,31.05
2023-03-16T10:50:23.772Z,30.99
2023-03-16T10:51:23.913Z,30.99
2023-03-16T10:52:23.960Z,30.93
2023-03-16T10:53:24.025Z,30.92
2023-03-16T10:54:24.117Z,31.11
2023-03-16T10:55:24.209Z,31.02
2023-03-16T10:56:24.271Z,31.12
2023-03-16T10:57:24.423Z,31.17
2023-03-16T10:58:24.478Z,31.20
2023-03-16T10:59:24.536Z,31.25
2023-03-16T11:00:24.590Z,31.18
2023-03-16T11:01:24.782Z,31.32
2023-03-16T11:02:24.844Z,31.22
2023-03-16T11:03:24.864Z,31.44
2023-03-16T11:04:25.003Z,31.36
2023-03-16T11:05:25.019Z,31.47
2023-03-16T11:06:25.081Z,31.03
2023-03-16T11:07:25.173Z,30.41
2023-03-16T11:08:25.242Z,30.35
2023-03-16T11:09:25.378Z,30.27
2023-03-16T11:10:25.377Z,30.41
2023-03-16T11:11:25.470Z,30.52
2023-03-16T11:12:25.589Z,30.56
2023-03-16T11:13:25.646Z,30.50
2023-03-16T11:14:31.670Z,30.36
2023-03-16T11:15:26.622Z,30.51
2023-03-16T11:16:25.969Z,30.45
2023-03-16T11:17:25.924Z,30.53
2023-03-16T11:18:26.012Z,30.57
2023-03-16T11:19:26.104Z,30.69
2023-03-16T11:20:26.182Z,30.70
2023-03-16T11:21:26.277Z,30.85
2023-03-16T11:22:26.352Z,30.89
2023-03-16T11:23:26.627Z,30.93
2023-03-16T11:24:26.552Z,30.95
2023-03-16T11:25:26.915Z,31.03
2023-03-16T11:26:26.703Z,31.04
2023-03-16T11:27:26.807Z,31.05
2023-03-16T11:28:26.857Z,31.11
2023-03-16T11:29:26.944Z,31.15
2023-03-16T11:30:27.054Z,31.11
2023-03-16T11:31:27.224Z,31.17
2023-03-16T11:32:27.222Z,31.16
2023-03-16T11:33:27.311Z,31.24
2023-03-16T11:34:27.380Z,31.20
2023-03-16T11:35:27.737Z,31.11
2023-03-16T11:36:27.613Z,31.23
2023-03-16T11:37:27.602Z,31.22
2023-03-16T11:38:27.684Z,31.23
2023-03-16T11:39:27.728Z,31.20
2023-03-16T11:40:27.798Z,31.27
2023-03-16T11:41:27.863Z,31.23
2023-03-16T11:42:27.976Z,31.27
2023-03-16T11:43:28.911Z,31.21
2023-03-16T11:44:28.101Z,31.32
2023-03-16T11:45:34.168Z,31.28
2023-03-16T11:46:28.264Z,31.33
2023-03-16T11:47:28.364Z,31.33
2023-03-16T11:48:28.434Z,31.30
2023-03-16T11:49:28.453Z,31.30
2023-03-16T11:50:28.514Z,31.39
2023-03-16T11:51:28.629Z,31.38
2023-03-16T11:52:28.670Z,31.42
2023-03-16T11:53:28.798Z,31.33
2023-03-16T11:54:28.880Z,31.38
2023-03-16T11:55:29.355Z,31.44
2023-03-16T11:56:29.011Z,31.40
2023-03-16T11:57:29.098Z,31.40
2023-03-16T11:58:29.185Z,31.44
2023-03-16T11:59:29.293Z,31.36
2023-03-16T12:00:29.344Z,31.35
2023-03-16T12:01:30.736Z,31.49
2023-03-16T12:02:29.665Z,31.40
2023-03-16T12:03:29.739Z,31.37
2023-03-16T12:04:29.836Z,31.47
2023-03-16T12:05:30.226Z,31.56
2023-03-16T12:06:29.849Z,31.53
2023-03-16T12:07:29.946Z,31.39
2023-03-16T12:08:30.051Z,30.22
2023-03-16T12:09:30.116Z,29.74
2023-03-16T12:10:30.220Z,29.96
2023-03-16T12:11:30.273Z,30.11
2023-03-16T12:12:30.380Z,30.37
2023-03-16T12:13:30.436Z,30.37
2023-03-16T12:14:30.529Z,30.49
2023-03-16T12:15:31.247Z,30.54
2023-03-16T12:16:48.669Z,30.66
2023-03-16T12:17:30.765Z,30.77
2023-03-16T12:18:30.879Z,30.83
2023-03-16T12:19:30.950Z,30.86
2023-03-16T12:20:31.017Z,30.94
2023-03-16T12:21:31.110Z,30.88
2023-03-16T12:22:31.165Z,30.91
2023-03-16T12:23:31.223Z,30.87
2023-03-16T12:24:31.295Z,30.97
2023-03-16T12:25:31.425Z,31.01
2023-03-16T12:26:31.475Z,30.96
2023-03-16T12:27:31.578Z,31.03
2023-03-16T12:28:31.603Z,31.00
2023-03-16T12:29:32.880Z,31.16
2023-03-16T12:30:31.759Z,31.15
2023-03-16T12:31:31.911Z,31.14
2023-03-16T12:32:32.014Z,31.18
2023-03-16T12:33:32.043Z,31.24
2023-03-16T12:34:32.084Z,31.25
2023-03-16T12:35:32.787Z,31.27
2023-03-16T12:36:32.264Z,31.38
2023-03-16T12:37:32.355Z,31.42
2023-03-16T12:38:32.513Z,31.40
2023-03-16T12:39:32.489Z,31.43
2023-03-16T12:40:32.564Z,31.47
2023-03-16T12:41:32.656Z,31.46
2023-03-16T12:42:32.720Z,31.50
2023-03-16T12:43:32.880Z,31.56
2023-03-16T12:44:32.894Z,31.55
2023-03-16T12:45:33.067Z,31.59
2023-03-16T12:46:33.041Z,31.61
2023-03-16T12:47:39.098Z,31.61
2023-03-16T12:48:33.228Z,31.64
2023-03-16T12:49:33.301Z,31.63
2023-03-16T12:50:33.339Z,31.63
2023-03-16T12:51:33.414Z,31.61
2023-03-16T12:52:33.482Z,31.65
2023-03-16T12:53:33.561Z,31.64